Time;durP1;ratioP1;P1;durP2;ratioP2;P2;SDS_P1;SDS_P2;PMS_P1;PMS_P2;Temp;Humidity;BMP_temperature;BMP_pressure;BME280_temperature;BME280_humidity;BME280_pressure;Samples;Min_cycle;Max_cycle;Signal;HPM_P1;HPM_P2
2023/12/21 00:00:46;;;;;;;3.88;3.58;;;;;;;;;;4887101;29;20040;-73
2023/12/21 00:03:12;;;;;;;3.08;2.88;;;;;;;;;;4913012;29;20028;-72
2023/12/21 00:05:40;;;;;;;3.70;3.40;;;;;;;;;;4914392;29;20396;-73
2023/12/21 00:08:06;;;;;;;6.90;3.78;;;;;;;;;;4914107;29;20036;-72
2023/12/21 00:10:33;;;;;;;4.13;3.72;;;;;;;;;;4915101;29;20407;-73
2023/12/21 00:12:59;;;;;;;4.15;3.85;;;;;;;;;;4913674;29;20036;-72
2023/12/21 00:15:25;;;;;;;1.95;1.85;;;;;;;;;;4897546;29;20047;-73
2023/12/21 00:17:51;;;;;;;3.83;3.00;;;;;;;;;;4896786;29;20043;-73
2023/12/21 00:20:20;;;;;;;6.97;3.50;;;;;;;;;;4896775;29;20043;-74
2023/12/21 00:22:46;;;;;;;3.17;2.97;;;;;;;;;;4914015;29;20474;-74
2023/12/21 00:25:12;;;;;;;3.60;3.30;;;;;;;;;;4914764;29;20048;-75
2023/12/21 00:27:39;;;;;;;3.75;3.45;;;;;;;;;;4896849;29;20044;-74
2023/12/21 00:30:06;;;;;;;3.65;3.35;;;;;;;;;;4896637;29;20098;-74
2023/12/21 00:32:32;;;;;;;3.80;3.35;;;;;;;;;;4913471;29;20032;-74
2023/12/21 00:34:59;;;;;;;4.20;3.90;;;;;;;;;;4913964;29;20578;-73
2023/12/21 00:37:25;;;;;;;3.80;3.50;;;;;;;;;;4914952;29;20068;-72
2023/12/21 00:39:50;;;;;;;3.10;2.90;;;;;;;;;;4913623;29;20043;-74
2023/12/21 00:42:16;;;;;;;2.92;2.72;;;;;;;;;;4896070;29;20038;-74
2023/12/21 00:44:42;;;;;;;3.45;3.25;;;;;;;;;;4913422;29;20550;-73
2023/12/21 00:47:08;;;;;;;3.90;3.53;;;;;;;;;;4896068;29;20070;-72
2023/12/21 00:49:34;;;;;;;2.88;2.67;;;;;;;;;;4896720;29;20630;-74
2023/12/21 00:52:00;;;;;;;3.03;2.83;;;;;;;;;;4913728;29;20032;-74
2023/12/21 00:54:26;;;;;;;3.60;3.30;;;;;;;;;;4897875;29;20123;-73
2023/12/21 00:56:52;;;;;;;1.88;1.77;;;;;;;;;;4913575;29;20523;-72
2023/12/21 00:59:18;;;;;;;3.67;3.47;;;;;;;;;;4912588;29;20482;-72
2023/12/21 01:01:44;;;;;;;2.53;2.33;;;;;;;;;;4913383;29;20040;-72
2023/12/21 01:04:10;;;;;;;2.70;2.60;;;;;;;;;;4913361;29;20115;-73
2023/12/21 01:06:36;;;;;;;2.63;2.47;;;;;;;;;;4895555;29;20127;-73
2023/12/21 01:09:03;;;;;;;2.28;2.17;;;;;;;;;;4894615;29;20040;-74
2023/12/21 01:11:29;;;;;;;2.88;2.67;;;;;;;;;;4912633;29;20110;-73
2023/12/21 01:13:54;;;;;;;3.03;2.83;;;;;;;;;;4912645;29;20118;-72
2023/12/21 01:16:20;;;;;;;2.58;2.47;;;;;;;;;;4913691;29;20455;-73
2023/12/21 01:18:46;;;;;;;3.13;2.92;;;;;;;;;;4913078;29;20722;-74
2023/12/21 01:21:12;;;;;;;3.20;3.00;;;;;;;;;;4912315;29;20573;-74
2023/12/21 01:23:38;;;;;;;2.53;2.42;;;;;;;;;;4912349;29;20123;-74
2023/12/21 01:26:04;;;;;;;3.25;2.92;;;;;;;;;;4912477;29;20050;-75
2023/12/21 01:28:30;;;;;;;2.88;2.60;;;;;;;;;;4913688;29;20471;-75
2023/12/21 01:30:56;;;;;;;1.90;1.80;;;;;;;;;;4912535;29;20048;-76
2023/12/21 01:33:22;;;;;;;3.05;2.88;;;;;;;;;;4912138;29;20067;-75
2023/12/21 01:35:47;;;;;;;3.20;3.00;;;;;;;;;;4912942;29;20080;-74
2023/12/21 01:38:13;;;;;;;2.80;2.70;;;;;;;;;;4894977;29;20502;-76
2023/12/21 01:40:39;;;;;;;2.65;2.47;;;;;;;;;;4896347;29;20036;-76
2023/12/21 01:43:05;;;;;;;3.08;2.88;;;;;;;;;;4895057;29;20180;-75
2023/12/21 01:45:31;;;;;;;3.03;2.83;;;;;;;;;;4912744;29;20047;-75
2023/12/21 01:47:57;;;;;;;5.07;4.60;;;;;;;;;;4912110;29;20383;-74
2023/12/21 01:50:23;;;;;;;4.40;4.00;;;;;;;;;;4895071;29;20066;-74
2023/12/21 01:52:48;;;;;;;3.42;3.22;;;;;;;;;;4879563;29;20039;-76
2023/12/21 01:55:14;;;;;;;3.10;2.90;;;;;;;;;;4913153;29;20035;-76
2023/12/21 01:57:40;;;;;;;5.18;4.80;;;;;;;;;;4895025;29;20044;-74
2023/12/21 02:00:07;;;;;;;5.15;4.78;;;;;;;;;;4894551;29;20051;-76
2023/12/21 02:02:33;;;;;;;4.50;4.13;;;;;;;;;;4926095;29;20036;-77
2023/12/21 02:04:59;;;;;;;2.92;2.72;;;;;;;;;;4894950;29;20430;-75
2023/12/21 02:07:24;;;;;;;3.63;3.42;;;;;;;;;;4912721;29;20059;-75
2023/12/21 02:09:50;;;;;;;4.40;4.10;;;;;;;;;;4895343;29;20426;-74
2023/12/21 02:12:16;;;;;;;5.47;5.07;;;;;;;;;;4912035;29;20036;-75
2023/12/21 02:14:42;;;;;;;5.93;5.43;;;;;;;;;;4895351;29;20131;-74
2023/12/21 02:17:09;;;;;;;9.02;8.13;;;;;;;;;;4911559;29;20046;-74
2023/12/21 02:19:35;;;;;;;6.05;5.50;;;;;;;;;;4896180;29;20044;-75
2023/12/21 02:22:01;;;;;;;7.18;6.00;;;;;;;;;;4911499;29;20043;-74
2023/12/21 02:24:27;;;;;;;5.80;5.30;;;;;;;;;;4911425;29;20076;-75
2023/12/21 02:26:53;;;;;;;6.45;5.95;;;;;;;;;;4894796;29;20423;-75
2023/12/21 02:29:19;;;;;;;7.15;6.47;;;;;;;;;;4911257;29;20047;-74
2023/12/21 02:31:45;;;;;;;7.82;7.20;;;;;;;;;;4912125;29;20043;-75
2023/12/21 02:34:10;;;;;;;6.13;5.53;;;;;;;;;;4912310;29;20135;-75
2023/12/21 02:36:36;;;;;;;6.30;5.80;;;;;;;;;;4911595;29;20042;-75
2023/12/21 02:39:02;;;;;;;7.60;6.88;;;;;;;;;;4911456;29;20044;-76
2023/12/21 02:41:28;;;;;;;4.38;4.07;;;;;;;;;;4911537;29;20060;-76
2023/12/21 02:43:54;;;;;;;7.20;6.53;;;;;;;;;;4911385;29;20103;-75
2023/12/21 02:46:20;;;;;;;8.80;8.00;;;;;;;;;;4895773;29;20074;-75
2023/12/21 02:48:45;;;;;;;10.82;9.73;;;;;;;;;;4910765;29;20032;-74
2023/12/21 02:51:11;;;;;;;7.97;7.20;;;;;;;;;;4912574;29;20071;-75
2023/12/21 02:53:37;;;;;;;9.25;8.55;;;;;;;;;;4913787;29;20052;-75
2023/12/21 02:56:03;;;;;;;7.20;6.60;;;;;;;;;;4897553;29;20108;-75
2023/12/21 02:58:29;;;;;;;7.65;7.03;;;;;;;;;;4912415;29;20565;-74
2023/12/21 03:00:55;;;;;;;6.97;6.47;;;;;;;;;;4895186;29;20040;-75
2023/12/21 03:03:21;;;;;;;7.65;6.93;;;;;;;;;;4910254;29;20051;-76
2023/12/21 03:05:46;;;;;;;8.02;7.32;;;;;;;;;;4911496;29;20537;-76
2023/12/21 03:08:12;;;;;;;7.25;6.65;;;;;;;;;;4894106;29;20056;-74
2023/12/21 03:10:41;;;;;;;5.85;5.32;;;;;;;;;;4894630;29;20063;-75
2023/12/21 03:13:07;;;;;;;6.50;5.97;;;;;;;;;;4897707;29;20032;-76
2023/12/21 03:15:33;;;;;;;8.45;7.78;;;;;;;;;;4916114;29;20102;-76
2023/12/21 03:17:58;;;;;;;5.90;5.45;;;;;;;;;;4882472;29;20088;-75
2023/12/21 03:20:24;;;;;;;6.43;5.30;;;;;;;;;;4897684;29;20121;-80
2023/12/21 03:22:50;;;;;;;4.70;4.30;;;;;;;;;;4897075;29;20040;-81
2023/12/21 03:25:16;;;;;;;7.80;7.20;;;;;;;;;;4918937;29;20040;-80
2023/12/21 03:27:41;;;;;;;4.57;4.25;;;;;;;;;;4917767;29;20055;-81
2023/12/21 03:30:07;;;;;;;6.70;6.15;;;;;;;;;;4900930;29;20043;-81
2023/12/21 03:32:35;;;;;;;6.30;5.80;;;;;;;;;;4917802;29;20040;-81
2023/12/21 03:35:01;;;;;;;4.75;4.45;;;;;;;;;;4900217;29;20044;-81
2023/12/21 03:37:28;;;;;;;8.00;7.30;;;;;;;;;;4914675;29;20043;-78
2023/12/21 03:39:55;;;;;;;7.95;7.35;;;;;;;;;;4911796;29;20099;-79
2023/12/21 03:42:21;;;;;;;7.13;6.60;;;;;;;;;;4915233;29;20028;-79
2023/12/21 03:44:47;;;;;;;6.60;6.10;;;;;;;;;;4878952;29;20058;-78
2023/12/21 03:47:13;;;;;;;8.82;8.02;;;;;;;;;;4914395;29;20132;-81
2023/12/21 03:49:39;;;;;;;9.20;8.50;;;;;;;;;;4918696;29;20047;-81
2023/12/21 03:52:05;;;;;;;5.85;5.40;;;;;;;;;;4921268;29;20065;-80
2023/12/21 03:54:31;;;;;;;6.72;5.72;;;;;;;;;;4902817;29;20127;-82
2023/12/21 03:56:57;;;;;;;6.45;5.95;;;;;;;;;;4886860;29;20520;-80
2023/12/21 03:59:23;;;;;;;5.15;4.85;;;;;;;;;;4897768;29;20135;-76
2023/12/21 04:01:49;;;;;;;5.68;5.28;;;;;;;;;;4897191;29;20028;-76
2023/12/21 04:04:14;;;;;;;5.25;4.85;;;;;;;;;;4911926;29;20471;-76
2023/12/21 04:06:40;;;;;;;5.30;4.93;;;;;;;;;;4915224;29;20051;-74
2023/12/21 04:09:07;;;;;;;3.63;3.33;;;;;;;;;;4911581;29;20040;-74
2023/12/21 04:11:36;;;;;;;3.65;3.45;;;;;;;;;;4913067;29;20037;-76
2023/12/21 04:14:01;;;;;;;4.18;3.95;;;;;;;;;;4911534;29;20036;-76
2023/12/21 04:16:27;;;;;;;4.90;4.60;;;;;;;;;;4896123;29;20032;-76
2023/12/21 04:18:53;;;;;;;4.78;4.43;;;;;;;;;;4901718;29;20122;-75
2023/12/21 04:21:19;;;;;;;5.93;5.38;;;;;;;;;;4914897;29;20064;-75
2023/12/21 04:23:45;;;;;;;7.00;6.50;;;;;;;;;;4903182;29;20551;-76
2023/12/21 04:26:17;;;;;;;3.80;3.60;;;;;;;;;;4927613;29;20126;-75
2023/12/21 04:28:43;;;;;;;5.93;5.45;;;;;;;;;;4912496;29;20087;-75
2023/12/21 04:31:09;;;;;;;7.68;7.18;;;;;;;;;;4902805;29;20036;-77
2023/12/21 04:33:36;;;;;;;6.50;5.90;;;;;;;;;;4923590;29;20036;-76
2023/12/21 04:36:03;;;;;;;5.35;5.05;;;;;;;;;;4923009;29;20068;-76
2023/12/21 04:38:29;;;;;;;6.53;6.03;;;;;;;;;;4905840;29;20078;-75
2023/12/21 04:40:55;;;;;;;2.45;2.35;;;;;;;;;;4916606;29;20538;-74
2023/12/21 04:43:20;;;;;;;3.58;3.38;;;;;;;;;;4911677;29;20043;-76
2023/12/21 04:45:46;;;;;;;6.97;6.47;;;;;;;;;;4897203;29;20582;-74
2023/12/21 04:48:12;;;;;;;5.82;5.43;;;;;;;;;;4914351;29;20028;-75
2023/12/21 04:50:38;;;;;;;5.05;4.75;;;;;;;;;;4913333;29;20043;-74
2023/12/21 04:53:04;;;;;;;6.32;5.82;;;;;;;;;;4913635;29;20044;-75
2023/12/21 04:55:30;;;;;;;5.75;5.45;;;;;;;;;;4891754;29;20506;-75
2023/12/21 04:57:56;;;;;;;3.63;3.42;;;;;;;;;;4912558;29;20035;-74
2023/12/21 05:00:22;;;;;;;4.65;4.32;;;;;;;;;;4912382;29;20079;-74
2023/12/21 05:02:47;;;;;;;3.38;3.17;;;;;;;;;;4912748;29;20694;-75
2023/12/21 05:05:13;;;;;;;2.67;2.58;;;;;;;;;;4910394;29;20660;-74
2023/12/21 05:07:39;;;;;;;3.70;3.50;;;;;;;;;;4912679;29;20616;-75
2023/12/21 05:10:05;;;;;;;5.18;4.88;;;;;;;;;;4895891;29;20043;-74
2023/12/21 05:12:31;;;;;;;2.92;2.58;;;;;;;;;;4913789;29;20028;-74
2023/12/21 05:14:57;;;;;;;3.47;3.28;;;;;;;;;;4912708;29;20132;-75
2023/12/21 05:17:23;;;;;;;2.65;2.45;;;;;;;;;;4880799;29;20021;-75
2023/12/21 05:19:49;;;;;;;5.28;4.97;;;;;;;;;;4895862;29;20521;-74
2023/12/21 05:22:14;;;;;;;2.80;2.70;;;;;;;;;;4895601;29;20475;-75
2023/12/21 05:24:40;;;;;;;5.10;4.60;;;;;;;;;;4913733;29;20043;-75
2023/12/21 05:27:06;;;;;;;3.30;3.10;;;;;;;;;;4879823;29;20049;-75
2023/12/21 05:29:32;;;;;;;4.25;4.05;;;;;;;;;;4912455;29;20052;-74
2023/12/21 05:31:58;;;;;;;4.00;3.70;;;;;;;;;;4912908;29;20032;-74
2023/12/21 05:34:24;;;;;;;4.05;3.75;;;;;;;;;;4894636;29;20095;-74
2023/12/21 05:36:50;;;;;;;4.57;4.28;;;;;;;;;;4895480;29;20040;-74
2023/12/21 05:39:16;;;;;;;4.10;3.80;;;;;;;;;;4913578;29;20032;-74
2023/12/21 05:41:43;;;;;;;4.03;3.72;;;;;;;;;;4895392;29;20043;-74
2023/12/21 05:44:08;;;;;;;2.55;2.35;;;;;;;;;;4895136;29;20040;-74
2023/12/21 05:46:34;;;;;;;5.00;4.43;;;;;;;;;;4897294;29;20044;-75
2023/12/21 05:49:00;;;;;;;5.75;4.05;;;;;;;;;;4916669;29;20395;-74
2023/12/21 05:51:26;;;;;;;3.97;3.65;;;;;;;;;;4896253;29;20530;-75
2023/12/21 05:53:52;;;;;;;4.78;4.07;;;;;;;;;;4910558;29;20040;-75
2023/12/21 05:56:17;;;;;;;5.03;3.45;;;;;;;;;;4911773;29;20043;-74
2023/12/21 05:58:43;;;;;;;4.20;3.80;;;;;;;;;;4913729;29;20043;-74
2023/12/21 06:01:09;;;;;;;5.25;3.47;;;;;;;;;;4911896;29;20400;-74
2023/12/21 06:03:35;;;;;;;3.97;3.35;;;;;;;;;;4911653;29;20123;-74
2023/12/21 06:06:01;;;;;;;3.25;3.00;;;;;;;;;;4891783;29;20044;-74
2023/12/21 06:08:27;;;;;;;3.60;3.40;;;;;;;;;;4910715;29;20038;-75
2023/12/21 06:10:52;;;;;;;3.03;1.95;;;;;;;;;;4893340;29;20590;-74
2023/12/21 06:13:18;;;;;;;7.18;4.60;;;;;;;;;;4910247;29;20115;-74
2023/12/21 06:15:44;;;;;;;5.85;3.90;;;;;;;;;;4894363;29;20038;-74
2023/12/21 06:18:09;;;;;;;3.75;3.45;;;;;;;;;;4910935;29;20032;-73
2023/12/21 06:20:35;;;;;;;3.05;2.85;;;;;;;;;;4910216;29;20116;-74
2023/12/21 06:23:02;;;;;;;4.32;3.70;;;;;;;;;;4910118;29;20043;-74
2023/12/21 06:25:28;;;;;;;2.88;2.70;;;;;;;;;;4909614;29;20040;-74
2023/12/21 06:27:54;;;;;;;3.25;3.05;;;;;;;;;;4910154;29;20036;-74
2023/12/21 06:30:20;;;;;;;7.22;3.35;;;;;;;;;;4911137;29;20043;-73
2023/12/21 06:32:46;;;;;;;8.80;3.55;;;;;;;;;;4907540;29;20036;-75
2023/12/21 06:35:13;;;;;;;2.92;2.72;;;;;;;;;;4901924;29;20039;-73
2023/12/21 06:37:38;;;;;;;3.13;2.80;;;;;;;;;;4886196;29;20083;-74
2023/12/21 06:40:05;;;;;;;4.07;2.65;;;;;;;;;;4888268;29;20036;-75
2023/12/21 06:42:31;;;;;;;4.78;4.05;;;;;;;;;;4905392;29;20068;-74
2023/12/21 06:44:57;;;;;;;4.10;2.72;;;;;;;;;;4902198;29;20074;-74
2023/12/21 06:47:22;;;;;;;3.53;3.33;;;;;;;;;;4892484;29;20115;-75
2023/12/21 06:49:48;;;;;;;4.50;3.45;;;;;;;;;;4894166;29;20064;-74
2023/12/21 06:52:14;;;;;;;4.57;4.18;;;;;;;;;;4893260;29;20031;-73
2023/12/21 06:54:40;;;;;;;4.05;3.75;;;;;;;;;;4905607;29;20451;-75
2023/12/21 06:57:06;;;;;;;4.03;3.63;;;;;;;;;;4889658;29;20123;-74
2023/12/21 06:59:31;;;;;;;3.47;3.28;;;;;;;;;;4906340;29;20503;-75
2023/12/21 07:01:57;;;;;;;4.60;3.60;;;;;;;;;;4891862;29;20379;-74
2023/12/21 07:04:23;;;;;;;6.82;4.10;;;;;;;;;;4886532;29;20048;-75
2023/12/21 07:06:50;;;;;;;4.55;4.20;;;;;;;;;;4886735;29;20036;-74
2023/12/21 07:09:17;;;;;;;3.25;3.00;;;;;;;;;;4903423;29;20065;-74
2023/12/21 07:11:43;;;;;;;4.03;3.65;;;;;;;;;;4916789;29;20035;-73
2023/12/21 07:14:09;;;;;;;3.03;2.83;;;;;;;;;;4903425;29;20040;-74
2023/12/21 07:16:35;;;;;;;3.58;3.28;;;;;;;;;;4901704;29;20430;-74
2023/12/21 07:19:02;;;;;;;2.72;2.58;;;;;;;;;;4903444;29;20049;-74
2023/12/21 07:21:28;;;;;;;4.00;3.65;;;;;;;;;;4905974;29;20035;-74
2023/12/21 07:23:54;;;;;;;3.47;3.17;;;;;;;;;;4906130;29;20119;-75
2023/12/21 07:26:20;;;;;;;3.97;2.85;;;;;;;;;;4909269;29;20036;-76
2023/12/21 07:28:46;;;;;;;3.75;3.50;;;;;;;;;;4897569;29;20090;-75
2023/12/21 07:31:15;;;;;;;4.38;4.07;;;;;;;;;;4885624;29;20036;-74
2023/12/21 07:33:42;;;;;;;5.38;4.95;;;;;;;;;;4883770;29;20048;-75
2023/12/21 07:36:08;;;;;;;4.45;4.05;;;;;;;;;;4881333;29;20032;-74
2023/12/21 07:38:36;;;;;;;4.15;3.85;;;;;;;;;;4857097;29;20059;-73
2023/12/21 07:41:02;;;;;;;5.28;3.67;;;;;;;;;;4876734;29;20044;-74
2023/12/21 07:43:29;;;;;;;4.75;3.70;;;;;;;;;;4875044;29;20167;-74
2023/12/21 07:45:55;;;;;;;3.72;3.47;;;;;;;;;;4875669;29;20037;-74
2023/12/21 07:48:21;;;;;;;3.13;2.92;;;;;;;;;;4876548;29;20458;-74
2023/12/21 07:50:47;;;;;;;3.35;3.05;;;;;;;;;;4875309;29;20100;-74
2023/12/21 07:53:12;;;;;;;4.20;3.80;;;;;;;;;;4875962;29;20033;-75
2023/12/21 07:55:38;;;;;;;4.32;3.92;;;;;;;;;;4876601;29;20036;-75
2023/12/21 07:58:05;;;;;;;2.20;2.10;;;;;;;;;;4885063;29;20501;-74
2023/12/21 08:00:31;;;;;;;3.58;3.30;;;;;;;;;;4880660;29;20447;-77
2023/12/21 08:02:57;;;;;;;4.72;4.18;;;;;;;;;;4877985;29;20025;-75
2023/12/21 08:05:23;;;;;;;4.68;2.90;;;;;;;;;;4881260;29;20075;-76
2023/12/21 08:07:49;;;;;;;7.53;4.13;;;;;;;;;;4881469;29;20029;-75
2023/12/21 08:10:15;;;;;;;5.65;3.00;;;;;;;;;;4885942;29;20048;-77
2023/12/21 08:12:41;;;;;;;4.25;3.10;;;;;;;;;;4886395;29;20035;-75
2023/12/21 08:15:09;;;;;;;4.07;3.78;;;;;;;;;;4882137;29;20044;-75
2023/12/21 08:17:36;;;;;;;9.23;4.20;;;;;;;;;;4885314;29;20098;-76
2023/12/21 08:20:04;;;;;;;3.83;3.25;;;;;;;;;;4882701;29;20037;-75
2023/12/21 08:22:31;;;;;;;12.32;4.90;;;;;;;;;;4881723;29;20062;-75
2023/12/21 08:24:57;;;;;;;4.90;4.00;;;;;;;;;;4884594;29;20063;-77
2023/12/21 08:27:23;;;;;;;5.80;4.50;;;;;;;;;;4879567;29;20124;-74
2023/12/21 08:29:50;;;;;;;4.60;3.88;;;;;;;;;;4911244;29;20060;-76
2023/12/21 08:32:16;;;;;;;7.10;4.40;;;;;;;;;;4894533;29;20032;-75
2023/12/21 08:34:42;;;;;;;5.90;4.28;;;;;;;;;;4894322;29;20036;-73
2023/12/21 08:37:09;;;;;;;5.25;3.60;;;;;;;;;;4905593;29;20059;-74
2023/12/21 08:39:35;;;;;;;7.63;4.90;;;;;;;;;;4916455;29;20044;-74
2023/12/21 08:42:02;;;;;;;4.90;4.38;;;;;;;;;;4903436;29;20108;-74
2023/12/21 08:44:28;;;;;;;11.50;5.45;;;;;;;;;;4867684;29;20071;-73
2023/12/21 08:46:54;;;;;;;5.00;4.50;;;;;;;;;;4912591;29;20059;-73
2023/12/21 08:49:20;;;;;;;6.85;4.95;;;;;;;;;;4911699;29;20573;-75
2023/12/21 08:51:46;;;;;;;5.00;4.47;;;;;;;;;;4911650;29;20037;-74
2023/12/21 08:54:13;;;;;;;8.52;5.93;;;;;;;;;;4913323;29;20039;-75
2023/12/21 08:56:44;;;;;;;5.55;4.20;;;;;;;;;;4912413;29;20036;-74
2023/12/21 08:59:09;;;;;;;4.30;3.78;;;;;;;;;;4914560;29;20042;-74
2023/12/21 09:01:35;;;;;;;6.22;4.45;;;;;;;;;;4913989;29;20044;-73
2023/12/21 09:04:02;;;;;;;7.07;4.93;;;;;;;;;;4912331;29;20072;-74
2023/12/21 09:06:28;;;;;;;5.43;4.82;;;;;;;;;;4895905;29;20046;-74
2023/12/21 09:08:54;;;;;;;6.88;4.45;;;;;;;;;;4878338;29;20032;-74
2023/12/21 09:11:20;;;;;;;7.88;4.28;;;;;;;;;;4895107;29;20079;-74
2023/12/21 09:13:45;;;;;;;7.72;5.53;;;;;;;;;;4895614;29;20068;-74
2023/12/21 09:16:14;;;;;;;6.35;3.83;;;;;;;;;;4908629;29;20036;-76
2023/12/21 09:18:42;;;;;;;4.38;3.03;;;;;;;;;;4914099;29;20044;-76
2023/12/21 09:21:08;;;;;;;6.97;5.07;;;;;;;;;;4911785;29;20341;-74
2023/12/21 09:23:35;;;;;;;5.53;4.65;;;;;;;;;;4913180;29;20507;-75
2023/12/21 09:26:00;;;;;;;8.15;4.18;;;;;;;;;;4895142;29;20363;-75
2023/12/21 09:28:27;;;;;;;4.88;3.63;;;;;;;;;;4914249;29;20060;-74
2023/12/21 09:30:55;;;;;;;16.50;5.03;;;;;;;;;;4916378;29;20067;-74
2023/12/21 09:33:20;;;;;;;7.18;4.70;;;;;;;;;;4863572;29;20051;-75
2023/12/21 09:35:48;;;;;;;9.23;4.97;;;;;;;;;;4884669;29;20466;-74
2023/12/21 09:38:14;;;;;;;4.78;4.35;;;;;;;;;;4907362;29;20032;-74
2023/12/21 09:40:39;;;;;;;9.25;4.97;;;;;;;;;;4913363;29;20525;-75
2023/12/21 09:43:05;;;;;;;9.68;4.00;;;;;;;;;;4894117;29;20099;-74
2023/12/21 09:45:32;;;;;;;6.22;5.15;;;;;;;;;;4912042;29;20075;-72
2023/12/21 09:47:58;;;;;;;7.47;5.72;;;;;;;;;;4913352;29;20442;-72
2023/12/21 09:50:25;;;;;;;7.05;5.63;;;;;;;;;;4905759;29;20120;-73
2023/12/21 09:52:51;;;;;;;8.55;6.90;;;;;;;;;;4913256;29;20081;-73
2023/12/21 09:55:17;;;;;;;5.63;4.90;;;;;;;;;;4910398;29;20032;-74
2023/12/21 09:57:43;;;;;;;5.80;4.90;;;;;;;;;;4893626;29;20043;-74
2023/12/21 10:00:09;;;;;;;4.78;4.35;;;;;;;;;;4896076;29;20051;-73
2023/12/21 10:02:38;;;;;;;4.80;4.25;;;;;;;;;;4913364;29;20151;-72
2023/12/21 10:05:04;;;;;;;5.63;4.53;;;;;;;;;;4891814;29;20648;-73
2023/12/21 10:07:30;;;;;;;4.78;4.38;;;;;;;;;;4922887;29;20379;-72
2023/12/21 10:09:57;;;;;;;2.63;2.53;;;;;;;;;;4911158;29;20041;-73
2023/12/21 10:12:23;;;;;;;2.70;2.50;;;;;;;;;;4895840;29;20059;-73
2023/12/21 10:14:58;;;;;;;2.95;2.75;;;;;;;;;;4912398;29;20065;-73
2023/12/21 10:17:24;;;;;;;2.95;2.75;;;;;;;;;;4894646;29;20028;-74
2023/12/21 10:19:50;;;;;;;2.20;2.10;;;;;;;;;;4879354;29;20127;-73
2023/12/21 10:22:17;;;;;;;3.75;3.55;;;;;;;;;;4914047;29;20050;-74
2023/12/21 10:24:43;;;;;;;3.40;3.03;;;;;;;;;;4909306;29;20506;-73
2023/12/21 10:27:15;;;;;;;3.55;3.17;;;;;;;;;;4896415;29;20043;-73
2023/12/21 10:29:41;;;;;;;3.28;3.08;;;;;;;;;;4894320;29;20052;-74
2023/12/21 10:32:08;;;;;;;2.90;2.70;;;;;;;;;;4907841;29;20025;-71
2023/12/21 10:34:35;;;;;;;3.17;2.90;;;;;;;;;;4890412;29;20156;-72
2023/12/21 10:37:02;;;;;;;1.98;1.88;;;;;;;;;;4908337;29;20024;-72
2023/12/21 10:39:30;;;;;;;2.17;2.00;;;;;;;;;;4889272;29;20036;-72
2023/12/21 10:41:55;;;;;;;2.33;2.13;;;;;;;;;;4906344;29;20511;-71
2023/12/21 10:44:21;;;;;;;2.20;2.10;;;;;;;;;;4890345;29;20048;-71
2023/12/21 10:46:47;;;;;;;2.10;2.00;;;;;;;;;;4904824;29;20028;-72
2023/12/21 10:49:14;;;;;;;2.13;2.03;;;;;;;;;;4901851;29;20593;-72
2023/12/21 10:51:43;;;;;;;3.28;3.08;;;;;;;;;;4901815;29;20036;-73
2023/12/21 10:54:09;;;;;;;2.45;2.00;;;;;;;;;;4895628;29;20037;-74
2023/12/21 10:56:39;;;;;;;3.97;3.63;;;;;;;;;;4907375;29;20040;-72
2023/12/21 10:59:05;;;;;;;5.05;4.55;;;;;;;;;;4911176;29;20526;-73
2023/12/21 11:01:32;;;;;;;2.67;2.47;;;;;;;;;;4905928;29;20040;-73
2023/12/21 11:04:01;;;;;;;6.10;2.88;;;;;;;;;;4909246;29;20040;-72
2023/12/21 11:06:27;;;;;;;3.60;2.90;;;;;;;;;;4919690;29;20036;-74
2023/12/21 11:08:55;;;;;;;2.20;2.10;;;;;;;;;;4896726;29;20100;-74
2023/12/21 11:11:23;;;;;;;2.53;2.42;;;;;;;;;;4887897;29;20040;-75
2023/12/21 11:13:52;;;;;;;1.60;1.50;;;;;;;;;;4928681;29;20050;-74
2023/12/21 11:16:20;;;;;;;1.85;1.75;;;;;;;;;;4909330;29;20099;-75
2023/12/21 11:18:46;;;;;;;2.53;2.35;;;;;;;;;;4909208;29;20139;-75
2023/12/21 11:21:12;;;;;;;2.33;2.17;;;;;;;;;;4897483;29;20027;-74
2023/12/21 11:23:41;;;;;;;2.08;1.98;;;;;;;;;;4910207;29;20067;-74
2023/12/21 11:26:07;;;;;;;2.10;2.00;;;;;;;;;;4891295;29;20079;-74
2023/12/21 11:28:34;;;;;;;2.58;2.47;;;;;;;;;;4898732;29;20084;-74
2023/12/21 11:31:16;;;;;;;2.47;2.28;;;;;;;;;;4905588;29;20573;-74
2023/12/21 11:33:42;;;;;;;;;;;;;;;;;;4915382;29;20043;-76
2023/12/21 11:36:08;;;;;;;4.70;2.65;;;;;;;;;;4937146;29;19915;-74
2023/12/21 11:38:49;;;;;;;3.17;2.97;;;;;;;;;;4921529;29;20514;-75
2023/12/21 11:41:15;;;;;;;2.88;2.67;;;;;;;;;;4882315;29;20042;-76
2023/12/21 11:43:41;;;;;;;2.50;2.28;;;;;;;;;;4899199;29;20515;-76
2023/12/21 11:46:09;;;;;;;2.63;2.42;;;;;;;;;;4898346;29;20044;-75
2023/12/21 11:48:35;;;;;;;3.60;3.30;;;;;;;;;;4912841;29;20111;-75
2023/12/21 11:51:01;;;;;;;3.38;3.03;;;;;;;;;;4880026;29;20147;-76
2023/12/21 11:53:28;;;;;;;5.35;3.38;;;;;;;;;;4915013;29;20043;-76
2023/12/21 11:55:54;;;;;;;3.05;2.85;;;;;;;;;;4913927;29;20043;-76
2023/12/21 11:58:21;;;;;;;2.83;2.63;;;;;;;;;;4914918;29;20039;-76
2023/12/21 12:00:51;;;;;;;3.17;2.88;;;;;;;;;;4893602;29;20502;-76
2023/12/21 12:03:17;;;;;;;3.72;2.97;;;;;;;;;;4889436;29;20517;-76
2023/12/21 12:05:44;;;;;;;6.10;3.72;;;;;;;;;;4907360;29;20057;-76
2023/12/21 12:08:10;;;;;;;5.57;4.20;;;;;;;;;;4880160;29;20092;-76
2023/12/21 12:10:36;;;;;;;9.98;4.47;;;;;;;;;;4896125;29;20040;-76
2023/12/21 12:13:02;;;;;;;7.43;4.95;;;;;;;;;;4895048;29;20044;-77
2023/12/21 12:15:29;;;;;;;9.20;5.43;;;;;;;;;;4897725;29;20036;-76
2023/12/21 12:17:55;;;;;;;7.38;4.32;;;;;;;;;;4898484;29;20118;-78
2023/12/21 12:20:20;;;;;;;3.40;3.00;;;;;;;;;;4896675;29;20118;-77
2023/12/21 12:22:47;;;;;;;4.45;3.78;;;;;;;;;;4912843;29;20083;-79
2023/12/21 12:25:16;;;;;;;5.28;3.08;;;;;;;;;;4924992;29;20055;-78
2023/12/21 12:27:44;;;;;;;3.93;3.17;;;;;;;;;;4914941;29;20047;-79
2023/12/21 12:30:10;;;;;;;3.38;2.95;;;;;;;;;;4915323;29;20854;-80
2023/12/21 12:32:36;;;;;;;3.53;2.97;;;;;;;;;;4897803;29;20761;-76
2023/12/21 12:35:02;;;;;;;2.67;2.42;;;;;;;;;;4879084;29;20071;-77
2023/12/21 12:37:30;;;;;;;3.25;2.95;;;;;;;;;;4897878;29;20372;-77
2023/12/21 12:39:58;;;;;;;3.47;2.92;;;;;;;;;;4898069;29;20048;-75
2023/12/21 12:42:24;;;;;;;3.17;2.97;;;;;;;;;;4915033;29;20043;-78
2023/12/21 12:44:51;;;;;;;4.25;3.85;;;;;;;;;;4898197;29;20091;-76
2023/12/21 12:47:19;;;;;;;2.38;2.17;;;;;;;;;;4914879;29;20119;-77
2023/12/21 12:49:45;;;;;;;2.58;2.38;;;;;;;;;;4913527;29;20036;-79
2023/12/21 12:52:16;;;;;;;2.65;2.50;;;;;;;;;;4870204;29;20040;-77
2023/12/21 12:54:42;;;;;;;3.50;3.30;;;;;;;;;;4895570;29;20075;-79
2023/12/21 12:57:08;;;;;;;2.85;2.65;;;;;;;;;;4879114;29;20035;-79
2023/12/21 12:59:34;;;;;;;3.00;2.80;;;;;;;;;;4899368;29;20044;-78
2023/12/21 13:02:00;;;;;;;2.92;2.72;;;;;;;;;;4914768;29;20032;-78
2023/12/21 13:04:26;;;;;;;3.22;2.97;;;;;;;;;;4914513;29;20044;-79
2023/12/21 13:06:53;;;;;;;3.08;2.88;;;;;;;;;;4913677;29;20043;-77
2023/12/21 13:09:20;;;;;;;2.97;2.80;;;;;;;;;;4914784;29;20434;-77
2023/12/21 13:11:47;;;;;;;2.40;2.30;;;;;;;;;;4897195;29;20044;-78
2023/12/21 13:14:15;;;;;;;2.40;2.30;;;;;;;;;;4913385;29;20462;-78
2023/12/21 13:16:41;;;;;;;2.42;2.00;;;;;;;;;;4879462;29;20047;-77
2023/12/21 13:19:08;;;;;;;2.80;2.67;;;;;;;;;;4912057;29;20043;-78
2023/12/21 13:21:34;;;;;;;2.53;2.33;;;;;;;;;;4911439;29;20095;-77
2023/12/21 13:24:00;;;;;;;3.47;3.28;;;;;;;;;;4909708;29;20084;-77
2023/12/21 13:26:28;;;;;;;3.55;2.88;;;;;;;;;;4909811;29;20040;-77
2023/12/21 13:28:54;;;;;;;3.05;2.85;;;;;;;;;;4913978;29;20166;-78
2023/12/21 13:31:21;;;;;;;2.70;2.60;;;;;;;;;;4894484;29;20040;-77
2023/12/21 13:33:47;;;;;;;2.85;2.60;;;;;;;;;;4912904;29;20050;-78
2023/12/21 13:36:13;;;;;;;2.28;2.17;;;;;;;;;;4878831;29;20070;-77
2023/12/21 13:38:40;;;;;;;2.55;2.40;;;;;;;;;;4895501;29;20138;-77
2023/12/21 13:41:08;;;;;;;2.70;2.50;;;;;;;;;;4912668;29;20517;-77
2023/12/21 13:43:35;;;;;;;2.90;2.70;;;;;;;;;;4912261;29;20731;-77
2023/12/21 13:46:01;;;;;;;1.67;1.60;;;;;;;;;;4882726;29;20036;-78
2023/12/21 13:48:27;;;;;;;2.55;2.17;;;;;;;;;;4895216;29;20111;-76
2023/12/21 13:50:53;;;;;;;2.80;2.50;;;;;;;;;;4893189;29;20059;-77
2023/12/21 13:53:19;;;;;;;2.60;2.50;;;;;;;;;;4896269;29;20062;-79
2023/12/21 13:55:46;;;;;;;2.13;2.00;;;;;;;;;;4907758;29;20607;-78
2023/12/21 13:58:12;;;;;;;2.80;2.60;;;;;;;;;;4866413;29;20051;-78
2023/12/21 14:00:38;;;;;;;3.10;2.90;;;;;;;;;;4895335;29;20338;-79
2023/12/21 14:03:04;;;;;;;2.95;2.75;;;;;;;;;;4927025;29;20035;-79
2023/12/21 14:05:30;;;;;;;2.85;2.58;;;;;;;;;;4880938;29;20048;-78
2023/12/21 14:07:56;;;;;;;2.92;2.72;;;;;;;;;;4895471;29;20067;-78
2023/12/21 14:10:23;;;;;;;2.72;2.53;;;;;;;;;;4910224;29;20085;-80
2023/12/21 14:12:48;;;;;;;2.67;2.45;;;;;;;;;;4896439;29;20176;-76
2023/12/21 14:15:14;;;;;;;3.00;2.60;;;;;;;;;;4913241;29;20566;-78
2023/12/21 14:17:40;;;;;;;2.42;2.25;;;;;;;;;;4893578;29;20050;-80
2023/12/21 14:20:06;;;;;;;2.22;1.98;;;;;;;;;;4896768;29;20286;-79
2023/12/21 14:22:32;;;;;;;4.95;2.90;;;;;;;;;;4913451;29;20020;-79
2023/12/21 14:24:58;;;;;;;3.67;3.03;;;;;;;;;;4897332;29;20048;-78
2023/12/21 14:27:25;;;;;;;2.72;2.55;;;;;;;;;;4894423;29;20118;-80
2023/12/21 14:29:51;;;;;;;3.08;2.53;;;;;;;;;;4897172;29;20546;-80
2023/12/21 14:32:18;;;;;;;3.30;3.05;;;;;;;;;;4924397;29;20075;-77
2023/12/21 14:34:44;;;;;;;3.05;2.80;;;;;;;;;;4908913;29;20527;-76
2023/12/21 14:37:13;;;;;;;3.38;3.17;;;;;;;;;;4893710;29;20127;-77